Time;durP1;ratioP1;P1;durP2;ratioP2;P2;SDS_P1;SDS_P2;PMS_P1;PMS_P2;Temp;Humidity;BMP_temperature;BMP_pressure;BME280_temperature;BME280_humidity;BME280_pressure;Samples;Min_cycle;Max_cycle;Signal;HPM_P1;HPM_P2
2022/01/22 00:00:25;;;;;;;19.52;8.05;;;;;;;-2.60;68.10;97797.94;5002662;28;20028;-85
2022/01/22 00:02:51;;;;;;;20.17;8.70;;;;;;;-2.83;68.37;97792.84;4995896;28;20060;-86
2022/01/22 00:05:19;;;;;;;19.35;8.82;;;;;;;-2.99;68.49;97786.81;5012778;28;20116;-86
2022/01/22 00:07:45;;;;;;;24.30;9.30;;;;;;;-2.98;70.33;97798.13;5013391;28;20034;-86
2022/01/22 00:10:16;;;;;;;22.20;9.27;;;;;;;-2.97;70.11;97798.16;5013565;28;20030;-85
2022/01/22 00:15:31;;;;;;;17.23;7.50;;;;;;;-3.00;71.06;97787.69;4995052;28;20045;-85
2022/01/22 00:17:58;;;;;;;22.45;9.90;;;;;;;-2.98;70.01;97793.78;4997582;28;20436;-85
2022/01/22 00:20:27;;;;;;;61.80;22.50;;;;;;;-3.07;70.60;97791.22;5014339;28;20446;-83
2022/01/22 00:22:53;;;;;;;66.18;25.90;;;;;;;-3.23;69.64;97780.84;4997331;28;20402;-84
2022/01/22 00:25:21;;;;;;;62.75;24.67;;;;;;;-3.30;69.69;97774.75;4997711;28;20021;-86
2022/01/22 00:27:48;;;;;;;58.00;24.00;;;;;;;-3.43;69.28;97765.22;4998061;28;20036;-84
2022/01/22 00:30:16;;;;;;;53.10;23.08;;;;;;;-3.41;70.30;97766.06;4998597;28;20029;-85
2022/01/22 00:32:42;;;;;;;35.95;15.20;;;;;;;-3.44;68.83;97766.09;4997469;28;20505;-85
2022/01/22 00:35:08;;;;;;;33.40;12.30;;;;;;;-3.43;68.22;97775.69;4997404;28;20040;-84
2022/01/22 00:37:35;;;;;;;37.10;15.20;;;;;;;-3.44;68.08;97771.31;4997661;28;20474;-85
2022/01/22 00:40:03;;;;;;;33.88;14.43;;;;;;;-3.41;68.75;97779.16;4986846;28;20567;-85
2022/01/22 00:42:31;;;;;;;34.88;14.88;;;;;;;-3.44;67.56;97781.78;4998432;28;20025;-86
2022/01/22 00:44:58;;;;;;;18.23;8.32;;;;;;;-3.32;68.90;97781.72;4997256;28;20044;-86
2022/01/22 00:47:24;;;;;;;19.02;9.23;;;;;;;-3.34;68.81;97775.63;5013495;28;20038;-86
2022/01/22 00:49:49;;;;;;;26.48;9.30;;;;;;;-3.32;69.58;97792.19;5013039;28;20034;-87
2022/01/22 00:52:15;;;;;;;21.25;9.95;;;;;;;-3.37;70.14;97787.00;5012557;28;20081;-86
2022/01/22 00:54:41;;;;;;;18.98;6.97;;;;;;;-3.37;69.70;97776.53;5012097;28;20444;-87
2022/01/22 00:57:06;;;;;;;12.18;5.07;;;;;;;-3.50;68.06;97766.09;4996241;28;20022;-84
2022/01/22 00:59:32;;;;;;;20.65;8.23;;;;;;;-3.49;67.42;97770.47;5012363;28;20409;-86
2022/01/22 01:01:58;;;;;;;20.45;8.15;;;;;;;-3.45;67.41;97774.81;5012504;28;20030;-86
2022/01/22 01:04:23;;;;;;;18.25;8.10;;;;;;;-3.53;68.53;97774.84;5011969;28;20163;-85
2022/01/22 01:06:49;;;;;;;14.77;6.22;;;;;;;-3.51;68.42;97774.84;4994865;28;20057;-85
2022/01/22 01:09:14;;;;;;;13.88;5.72;;;;;;;-3.47;67.91;97779.16;5011551;28;20036;-85
2022/01/22 01:11:46;;;;;;;14.23;6.35;;;;;;;-3.54;68.42;97772.25;5011890;28;20040;-85
2022/01/22 01:14:18;;;;;;;20.60;8.38;;;;;;;-3.60;68.39;97767.03;5011453;28;20133;-84
2022/01/22 01:17:10;;;;;;;32.72;9.43;;;;;;;-3.59;69.49;97776.59;4996048;28;20025;-85
2022/01/22 01:33:25;;;;;;;19.55;7.30;;;;;;;-3.49;69.32;97758.28;5012107;28;20093;-85
2022/01/22 01:35:51;;;;;;;18.63;7.35;;;;;;;-3.49;70.63;97758.28;4991867;28;20029;-85
2022/01/22 01:38:20;;;;;;;23.60;8.15;;;;;;;-3.49;71.76;97763.50;4985722;28;20022;-85
2022/01/22 01:40:54;;;;;;;18.30;7.55;;;;;;;-3.39;70.86;97751.28;4991947;28;20407;-85
2022/01/22 01:43:37;;;;;;;27.42;8.45;;;;;;;-3.41;70.64;97740.81;4992870;28;20494;-85
2022/01/22 01:46:03;;;;;;;19.85;7.18;;;;;;;-3.57;70.75;97733.06;5013905;28;20145;-86
2022/01/22 01:48:37;;;;;;;11.35;5.97;;;;;;;-3.55;71.52;97726.06;5011193;28;20121;-85
2022/01/22 01:51:04;;;;;;;9.40;5.70;;;;;;;-3.51;70.82;97738.25;5011710;28;20040;-86
2022/01/22 01:54:26;;;;;;;13.73;4.88;;;;;;;-3.59;70.18;97722.59;5010782;28;20030;-84
2022/01/22 01:58:59;;;;;;;26.33;8.98;;;;;;;-3.68;70.78;97720.00;5009688;28;20124;-85
2022/01/22 02:01:25;;;;;;;20.00;8.60;;;;;;;-3.76;72.56;97718.31;5011072;28;20509;-85
2022/01/22 02:03:55;;;;;;;24.90;9.85;;;;;;;-3.67;74.63;97739.19;5010964;28;20017;-85
2022/01/22 02:06:21;;;;;;;30.23;12.57;;;;;;;-3.81;76.51;97733.97;5008826;28;20037;-84
2022/01/22 02:08:47;;;;;;;38.20;15.85;;;;;;;-3.85;76.63;97721.81;5007982;28;20037;-85
2022/01/22 02:11:14;;;;;;;38.97;16.65;;;;;;;-3.89;77.79;97728.78;4994338;28;20032;-85
2022/01/22 02:24:49;;;;;;;35.05;14.95;;;;;;;-4.23;80.08;97734.06;5010791;28;20418;-86
2022/01/22 02:27:15;;;;;;;31.42;15.50;;;;;;;-4.27;80.63;97746.25;4993666;28;20025;-86
2022/01/22 02:29:41;;;;;;;32.75;13.57;;;;;;;-4.30;80.49;97727.13;5010880;28;20026;-86
2022/01/22 02:32:43;;;;;;;32.03;14.90;;;;;;;-4.34;82.26;97712.34;4994752;28;20051;-86
2022/01/22 02:35:00;;;;;;;30.20;12.90;;;;;;;-4.21;80.48;97725.38;5007694;28;20072;-86
2022/01/22 02:37:33;;;;;;;20.30;9.90;;;;;;;-4.21;79.72;97711.44;4998578;28;20114;-86
2022/01/22 02:40:10;;;;;;;21.42;9.05;;;;;;;-4.28;77.19;97694.94;5010643;28;20037;-86
2022/01/22 02:42:48;;;;;;;24.73;10.68;;;;;;;-4.32;78.44;97700.16;5010650;28;20040;-86
2022/01/22 02:45:18;;;;;;;18.10;8.60;;;;;;;-4.25;79.02;97697.53;5010880;28;20040;-86
2022/01/22 02:47:44;;;;;;;16.17;8.45;;;;;;;-4.38;78.04;97693.22;5008515;28;20117;-86
2022/01/22 02:50:10;;;;;;;21.63;9.63;;;;;;;-4.48;78.88;97704.50;5005428;28;20068;-85
2022/01/22 02:52:35;;;;;;;18.35;8.25;;;;;;;-4.57;80.24;97702.78;4991467;28;20054;-86
2022/01/22 02:55:01;;;;;;;18.08;9.50;;;;;;;-4.75;80.86;97676.72;4992477;28;20022;-86
2022/01/22 02:57:31;;;;;;;25.52;10.75;;;;;;;-4.60;83.26;97694.09;5014411;28;20045;-85
2022/01/22 02:59:58;;;;;;;30.70;11.60;;;;;;;-4.63;83.85;97681.06;4999356;28;20030;-86
2022/01/22 03:02:23;;;;;;;33.47;11.82;;;;;;;-4.62;85.67;97683.66;4997814;28;20026;-85
2022/01/22 03:04:49;;;;;;;28.35;12.75;;;;;;;-4.66;85.25;97670.63;5014801;28;20026;-86
2022/01/22 03:07:14;;;;;;;27.52;13.05;;;;;;;-4.63;85.68;97679.31;4997839;28;20406;-86
2022/01/22 03:09:43;;;;;;;32.63;13.80;;;;;;;-4.69;86.29;97660.19;4994982;28;20435;-86
2022/01/22 03:17:48;;;;;;;29.55;11.40;;;;;;;-4.73;85.01;97668.88;5014874;28;20029;-86
2022/01/22 03:27:50;;;;;;;35.30;13.98;;;;;;;-4.94;87.78;97664.53;5014266;28;20484;-85
2022/01/22 03:30:16;;;;;;;31.33;14.40;;;;;;;-5.13;88.90;97665.38;5011313;28;20034;-85
2022/01/22 03:32:46;;;;;;;38.45;14.55;;;;;;;-5.28;90.56;97653.22;5002129;28;20046;-84
2022/01/22 03:37:45;;;;;;;36.40;14.23;;;;;;;-5.39;93.38;97639.31;5013865;28;20095;-85
2022/01/22 03:40:12;;;;;;;35.65;16.10;;;;;;;-5.42;93.23;97628.88;4994357;28;20394;-86
2022/01/22 03:42:40;;;;;;;49.42;18.50;;;;;;;-5.40;94.11;97636.69;5003558;28;20030;-84
2022/01/22 03:45:07;;;;;;;40.08;16.50;;;;;;;-5.26;93.52;97638.44;4997067;28;20021;-85
2022/01/22 03:47:33;;;;;;;43.83;16.52;;;;;;;-5.32;93.58;97633.22;5013010;28;20066;-85
2022/01/22 03:49:58;;;;;;;34.35;15.50;;;;;;;-5.35;93.95;97635.81;4997177;28;20187;-85
2022/01/22 03:52:24;;;;;;;41.72;17.58;;;;;;;-5.30;93.70;97649.75;4996035;28;20565;-85
2022/01/22 03:54:50;;;;;;;54.70;22.48;;;;;;;-5.32;94.12;97650.59;5003087;28;20030;-86
2022/01/22 03:57:15;;;;;;;46.60;17.67;;;;;;;-5.33;95.13;97639.31;5013082;28;20474;-86
2022/01/22 03:59:41;;;;;;;43.50;16.80;;;;;;;-5.24;93.46;97639.31;5012078;28;20067;-85
2022/01/22 04:02:45;;;;;;;33.58;14.63;;;;;;;-5.14;90.72;97643.69;4996069;28;20053;-86
2022/01/22 04:04:59;;;;;;;29.65;12.40;;;;;;;-5.24;88.79;97635.84;5007627;28;20112;-85
2022/01/22 04:10:06;;;;;;;26.77;11.55;;;;;;;-5.57;91.15;97632.31;5012702;28;20057;-84
2022/01/22 04:12:47;;;;;;;27.27;10.55;;;;;;;-5.49;90.61;97633.22;4976755;28;20030;-84
2022/01/22 04:15:15;;;;;;;20.80;10.35;;;;;;;-5.61;90.45;97642.72;4996318;28;20026;-84
2022/01/22 04:25:56;;;;;;;34.08;15.70;;;;;;;-5.57;90.72;97639.28;5011244;28;20045;-84
2022/01/22 04:28:22;;;;;;;52.95;17.92;;;;;;;-5.53;89.69;97657.50;5012114;28;20034;-85
2022/01/22 04:30:47;;;;;;;46.10;16.98;;;;;;;-5.67;90.32;97642.72;5012954;28;20110;-84
2022/01/22 04:33:13;;;;;;;54.63;20.65;;;;;;;-5.67;90.85;97638.38;5001054;28;20034;-85
2022/01/22 04:35:38;;;;;;;58.38;18.90;;;;;;;-5.69;91.60;97628.81;5008423;28;20030;-86
2022/01/22 04:38:04;;;;;;;45.10;17.45;;;;;;;-5.64;91.63;97625.38;5011586;28;20041;-86
2022/01/22 04:40:29;;;;;;;48.70;16.65;;;;;;;-5.59;91.20;97635.78;5011845;28;20025;-85
2022/01/22 04:42:56;;;;;;;50.60;16.63;;;;;;;-5.41;91.01;97635.81;5011227;28;20104;-84
2022/01/22 04:45:43;;;;;;;40.00;13.77;;;;;;;-5.31;89.89;97639.28;5010794;28;20478;-85
2022/01/22 04:48:29;;;;;;;28.50;10.23;;;;;;;-5.14;87.43;97635.88;4998184;28;20030;-85
2022/01/22 04:56:23;;;;;;;20.33;6.85;;;;;;;-4.65;80.02;97617.59;5013576;28;20061;-86
2022/01/22 04:58:49;;;;;;;19.65;8.10;;;;;;;-4.38;80.15;97628.84;5012735;28;20038;-86
2022/01/22 05:01:14;;;;;;;22.52;8.18;;;;;;;-4.40;79.71;97627.94;5011659;28;20065;-86
2022/01/22 05:03:40;;;;;;;28.50;8.57;;;;;;;-4.21;79.70;97626.16;4995438;28;20037;-84
2022/01/22 05:06:07;;;;;;;24.55;11.38;;;;;;;-4.09;79.26;97623.50;5012306;28;20034;-86
2022/01/22 05:08:34;;;;;;;50.35;18.92;;;;;;;-4.06;78.87;97628.72;5012125;28;20108;-85
2022/01/22 05:10:59;;;;;;;31.50;13.18;;;;;;;-3.99;79.10;97638.28;5012100;28;20064;-86
2022/01/22 05:13:25;;;;;;;21.73;9.90;;;;;;;-3.98;78.15;97626.97;5012714;28;20034;-86
2022/01/22 05:15:50;;;;;;;50.13;18.00;;;;;;;-3.87;77.54;97625.16;5008635;28;20022;-86
2022/01/22 05:18:16;;;;;;;48.60;18.27;;;;;;;-3.97;78.43;97623.44;4987477;28;20486;-86
2022/01/22 05:20:48;;;;;;;39.20;16.63;;;;;;;-3.75;77.57;97634.69;5012587;28;20104;-86
2022/01/22 05:23:19;;;;;;;29.02;12.18;;;;;;;-3.77;77.18;97627.72;4997575;28;20405;-86
2022/01/22 05:25:53;;;;;;;20.38;8.32;;;;;;;-3.73;77.75;97629.47;5011861;28;20383;-85
2022/01/22 05:39:09;;;;;;;15.48;7.53;;;;;;;-4.04;75.87;97616.53;5013318;28;20507;-86
2022/01/22 05:41:35;;;;;;;19.73;9.45;;;;;;;-3.93;75.50;97624.31;4992942;28;20041;-86
2022/01/22 05:44:01;;;;;;;20.17;8.68;;;;;;;-3.68;75.47;97628.56;5012544;28;20029;-86
2022/01/22 05:46:27;;;;;;;35.90;9.02;;;;;;;-3.52;75.08;97630.22;4996262;28;20041;-86
2022/01/22 05:48:52;;;;;;;33.05;11.18;;;;;;;-3.54;74.97;97628.50;4997768;28;20056;-84
2022/01/22 05:51:18;;;;;;;30.48;11.43;;;;;;;-3.52;75.11;97637.19;5009300;28;20105;-85
2022/01/22 05:54:02;;;;;;;50.75;19.02;;;;;;;-3.52;75.29;97626.72;4990167;28;20502;-85
2022/01/22 06:01:57;;;;;;;47.10;20.52;;;;;;;-3.12;71.83;97627.34;5010960;28;20087;-86
2022/01/22 06:04:22;;;;;;;30.05;11.85;;;;;;;-2.97;70.22;97617.63;5011816;28;20025;-86
2022/01/22 06:06:48;;;;;;;26.27;11.57;;;;;;;-2.85;70.28;97627.13;4987157;28;20093;-86
2022/01/22 06:09:14;;;;;;;17.95;6.93;;;;;;;-2.71;67.67;97611.31;5001399;28;20557;-86
2022/01/22 06:11:55;;;;;;;19.73;9.23;;;;;;;-2.54;66.88;97614.63;4994682;28;20084;-85
2022/01/22 06:14:20;;;;;;;22.95;8.73;;;;;;;-2.61;65.66;97571.94;4996944;28;20034;-84
2022/01/22 06:16:46;;;;;;;48.45;15.30;;;;;;;-2.34;66.22;97607.47;5011578;28;20041;-86
2022/01/22 06:19:12;;;;;;;24.88;10.38;;;;;;;-2.35;64.04;97569.06;4995382;28;20038;-86
2022/01/22 06:21:38;;;;;;;17.67;8.10;;;;;;;-2.18;63.85;97589.84;5011456;28;20080;-84
2022/01/22 06:24:04;;;;;;;17.88;7.97;;;;;;;-2.33;63.30;97562.03;5010966;28;20029;-87
2022/01/22 06:26:29;;;;;;;16.40;7.25;;;;;;;-2.23;62.54;97566.28;5011207;28;20037;-86
2022/01/22 06:28:55;;;;;;;23.83;7.38;;;;;;;-2.18;62.00;97558.41;4994335;28;20097;-85
2022/01/22 06:31:20;;;;;;;21.65;8.65;;;;;;;-2.10;62.31;97570.50;5012156;28;20045;-86
2022/01/22 06:33:46;;;;;;;27.58;11.15;;;;;;;-1.97;62.60;97579.94;5011320;28;20421;-86
2022/01/22 06:36:12;;;;;;;20.73;9.18;;;;;;;-2.08;61.68;97554.75;5011622;28;20041;-85
2022/01/22 06:38:38;;;;;;;35.70;12.68;;;;;;;-2.02;61.56;97562.53;5009647;28;20069;-85
2022/01/22 06:43:47;;;;;;;15.10;7.43;;;;;;;-1.89;61.16;97565.00;5011598;28;20484;-85
2022/01/22 06:46:13;;;;;;;21.92;8.68;;;;;;;-1.79;60.85;97568.38;5011834;28;20038;-85
2022/01/22 06:48:39;;;;;;;21.33;8.75;;;;;;;-1.79;60.49;97545.66;5007137;28;20413;-85
2022/01/22 06:51:05;;;;;;;24.02;9.85;;;;;;;-1.65;59.85;97562.03;4996861;28;20102;-86
2022/01/22 06:53:35;;;;;;;24.33;9.50;;;;;;;-1.59;59.27;97550.59;5006570;28;20063;-85
2022/01/22 06:56:02;;;;;;;40.25;16.40;;;;;;;-1.41;59.97;97560.81;4981927;28;20515;-87
2022/01/22 06:58:28;;;;;;;94.03;39.30;;;;;;;-1.43;59.65;97546.00;4996319;28;20033;-88
2022/01/22 07:00:53;;;;;;;31.65;12.30;;;;;;;-1.30;58.69;97550.19;4993573;28;20041;-86
2022/01/22 07:03:19;;;;;;;61.58;24.38;;;;;;;-1.17;59.08;97549.09;4997596;28;20112;-85
2022/01/22 07:05:45;;;;;;;92.25;34.00;;;;;;;-1.13;60.22;97548.13;5011286;28;20081;-85
2022/01/22 07:08:10;;;;;;;97.68;36.70;;;;;;;-0.98;60.08;97555.75;4995123;28;20034;-86
2022/01/22 07:10:36;;;;;;;38.45;15.48;;;;;;;-0.81;58.31;97539.72;5001374;28;20386;-87
2022/01/22 07:13:01;;;;;;;35.67;15.80;;;;;;;-0.63;57.56;97535.03;5001421;28;20511;-85
2022/01/22 07:15:28;;;;;;;79.15;30.27;;;;;;;-0.39;56.54;97532.81;5011868;28;20026;-86
2022/01/22 07:17:55;;;;;;;22.65;10.40;;;;;;;-0.17;55.15;97534.13;5012521;28;20096;-87
2022/01/22 07:20:27;;;;;;;50.97;20.75;;;;;;;0.01;55.97;97546.91;4995132;28;20099;-87
2022/01/22 07:23:01;;;;;;;34.88;15.73;;;;;;;-0.09;55.76;97537.47;4995956;28;20088;-88
2022/01/22 07:25:27;;;;;;;36.50;15.35;;;;;;;-0.29;55.14;97537.00;4993767;28;20038;-86
2022/01/22 07:27:52;;;;;;;25.45;12.20;;;;;;;-0.56;57.44;97549.78;5007577;28;20068;-88
2022/01/22 07:30:18;;;;;;;35.67;15.98;;;;;;;-0.92;58.27;97550.41;4991907;28;20049;-87
2022/01/22 07:32:46;;;;;;;42.00;17.10;;;;;;;-1.04;58.72;97565.47;5010581;28;20084;-85
2022/01/22 07:35:14;;;;;;;51.17;21.90;;;;;;;-1.22;61.33;97572.78;4980752;28;20030;-86
2022/01/22 07:37:41;;;;;;;27.45;11.80;;;;;;;-1.27;61.63;97572.00;4994146;28;20092;-86
2022/01/22 07:40:08;;;;;;;32.50;15.63;;;;;;;-1.24;61.68;97571.06;4993814;28;20401;-86
2022/01/22 07:42:34;;;;;;;17.20;8.13;;;;;;;-1.39;62.68;97555.56;4996436;28;20409;-86
2022/01/22 07:45:01;;;;;;;63.17;27.75;;;;;;;-1.26;62.60;97565.81;4991867;28;20030;-87
2022/01/22 07:47:26;;;;;;;38.95;16.92;;;;;;;-1.18;62.24;97563.09;5012163;28;20026;-87
2022/01/22 07:49:52;;;;;;;33.35;13.35;;;;;;;-1.04;60.23;97550.63;4995595;28;20048;-86
2022/01/22 07:52:17;;;;;;;59.38;23.27;;;;;;;-0.86;59.95;97546.84;5010641;28;20060;-86
2022/01/22 07:54:43;;;;;;;31.70;9.05;;;;;;;-0.97;59.15;97539.13;4990966;28;20511;-86
2022/01/22 07:57:09;;;;;;;51.42;19.85;;;;;;;-1.02;60.19;97547.97;4991625;28;20028;-86
2022/01/22 07:59:34;;;;;;;25.00;9.85;;;;;;;-1.14;60.32;97539.41;4995257;28;20042;-87
2022/01/22 08:02:04;;;;;;;19.40;8.40;;;;;;;-1.20;60.28;97533.41;5011244;28;20042;-85
2022/01/22 08:04:29;;;;;;;28.23;10.07;;;;;;;-1.17;60.92;97534.19;5009719;28;20453;-87
2022/01/22 08:06:59;;;;;;;33.08;11.75;;;;;;;-0.96;60.30;97540.00;4991475;28;20337;-87
2022/01/22 08:09:25;;;;;;;35.28;12.82;;;;;;;-0.98;61.33;97526.00;4997147;28;20025;-87
2022/01/22 08:11:51;;;;;;;28.15;13.27;;;;;;;-0.94;59.38;97515.44;5004530;28;20056;-86
2022/01/22 08:14:16;;;;;;;38.40;12.00;;;;;;;-0.83;59.02;97531.03;4996883;28;20386;-84
2022/01/22 08:16:45;;;;;;;34.20;13.13;;;;;;;-0.72;56.96;97524.69;5015276;28;20503;-85
2022/01/22 08:19:10;;;;;;;34.58;13.98;;;;;;;-0.67;57.89;97519.34;4997477;28;20038;-86
2022/01/22 08:21:36;;;;;;;32.67;13.38;;;;;;;-0.63;56.92;97519.25;4980980;28;20097;-86
2022/01/22 08:24:01;;;;;;;39.03;16.30;;;;;;;-0.48;56.87;97514.59;5013140;28;20037;-86
2022/01/22 08:26:32;;;;;;;38.85;16.35;;;;;;;-0.20;55.73;97506.16;4990132;28;20064;-88
2022/01/22 08:29:00;;;;;;;35.97;11.48;;;;;;;0.32;54.19;97516.44;4998067;28;20040;-87
2022/01/22 08:36:44;;;;;;;28.27;12.40;;;;;;;3.28;46.91;97453.44;5014385;28;19963;-87
2022/01/22 08:39:10;;;;;;;25.30;10.43;;;;;;;3.17;45.73;97447.63;5013618;28;20461;-86
2022/01/22 08:41:36;;;;;;;22.48;10.45;;;;;;;2.64;46.25;97437.09;5013906;28;20026;-86
2022/01/22 08:44:03;;;;;;;19.63;9.18;;;;;;;2.10;48.81;97452.88;4997412;28;20814;-87
2022/01/22 08:46:30;;;;;;;29.52;9.10;;;;;;;1.72;49.46;97470.75;4997628;28;20133;-86
2022/01/22 08:48:55;;;;;;;26.20;10.98;;;;;;;1.38;50.49;97461.16;5008965;28;20043;-87
2022/01/22 08:51:21;;;;;;;23.63;9.20;;;;;;;1.34;50.01;97459.50;4995829;28;20050;-86
2022/01/22 08:53:50;;;;;;;15.75;7.03;;;;;;;1.05;50.56;97464.66;4995133;28;20095;-86
2022/01/22 08:56:17;;;;;;;14.00;6.22;;;;;;;0.89;51.04;97473.88;4997933;28;20037;-87
2022/01/22 08:58:42;;;;;;;22.52;7.72;;;;;;;0.63;51.90;97460.47;5012393;28;20441;-88
2022/01/22 09:01:09;;;;;;;33.22;12.15;;;;;;;1.46;50.10;97448.59;5011084;28;20042;-88
2022/01/22 09:03:35;;;;;;;16.45;7.80;;;;;;;2.49;46.97;97434.94;4988180;28;20497;-87
2022/01/22 09:06:03;;;;;;;14.48;7.40;;;;;;;2.60;46.70;97418.75;5009255;28;20038;-86
2022/01/22 09:08:32;;;;;;;11.38;5.95;;;;;;;2.97;45.66;97419.28;5013289;28;20048;-87
2022/01/22 09:10:57;;;;;;;26.98;11.77;;;;;;;3.95;44.68;97412.16;5011436;28;20111;-88
2022/01/22 09:13:41;;;;;;;29.88;14.38;;;;;;;3.22;45.15;97395.50;5010631;28;20061;-87
2022/01/22 09:16:10;;;;;;;39.88;13.95;;;;;;;3.13;45.46;97385.25;4993521;28;20500;-87
2022/01/22 09:18:36;;;;;;;45.17;21.42;;;;;;;3.62;44.06;97385.22;4993938;28;20038;-86
2022/01/22 09:21:04;;;;;;;19.80;9.48;;;;;;;4.36;42.59;97394.69;5010848;28;20103;-88
2022/01/22 09:23:31;;;;;;;18.05;8.80;;;;;;;3.71;43.56;97429.81;5010909;28;20061;-86
2022/01/22 09:25:57;;;;;;;10.20;4.75;;;;;;;3.56;43.38;97422.47;5014850;28;20044;-87
2022/01/22 09:28:24;;;;;;;9.10;4.50;;;;;;;3.27;43.65;97409.41;5005502;28;20095;-88
2022/01/22 09:30:49;;;;;;;14.25;7.78;;;;;;;4.84;41.97;97403.28;4994926;28;20030;-88
2022/01/22 09:33:15;;;;;;;14.95;6.82;;;;;;;4.86;41.69;97397.94;5013606;28;20092;-88
2022/01/22 09:35:41;;;;;;;10.02;5.10;;;;;;;4.64;41.76;97395.31;5012709;28;20030;-86
2022/01/22 09:38:06;;;;;;;30.80;10.68;;;;;;;4.62;41.05;97357.41;4995994;28;20092;-88
2022/01/22 09:40:32;;;;;;;29.75;12.07;;;;;;;5.11;40.56;97381.81;5013023;28;20413;-88
2022/01/22 09:42:59;;;;;;;25.05;8.57;;;;;;;4.51;41.63;97375.53;5010159;28;20062;-87
2022/01/22 09:45:27;;;;;;;10.52;4.60;;;;;;;3.83;41.90;97384.41;4996234;28;20033;-88
2022/01/22 09:47:53;;;;;;;25.52;10.10;;;;;;;3.95;41.85;97390.13;5009515;28;20045;-87
2022/01/22 09:50:20;;;;;;;29.30;13.18;;;;;;;3.67;42.93;97374.44;5012453;28;20041;-86
2022/01/22 09:52:46;;;;;;;19.45;8.05;;;;;;;3.21;43.91;97375.28;4995032;28;20523;-87
2022/01/22 09:55:12;;;;;;;21.95;9.68;;;;;;;3.48;44.09;97376.91;5012084;28;20033;-88
2022/01/22 09:57:39;;;;;;;34.30;15.60;;;;;;;2.45;45.72;97379.69;5014129;28;20033;-87
2022/01/22 10:00:09;;;;;;;23.90;12.10;;;;;;;2.53;45.60;97382.91;4994177;28;20040;-86
2022/01/22 10:02:45;;;;;;;21.88;10.65;;;;;;;2.41;44.96;97373.63;5009760;28;20049;-86
2022/01/22 10:05:30;;;;;;;11.07;5.80;;;;;;;2.59;45.29;97364.22;4993163;28;20373;-87
2022/01/22 10:08:24;;;;;;;17.70;6.40;;;;;;;2.65;45.73;97383.38;5025799;28;20039;-87
2022/01/22 10:10:51;;;;;;;15.10;6.78;;;;;;;2.57;46.64;97374.00;4988575;28;20498;-85
2022/01/22 10:13:37;;;;;;;19.98;8.15;;;;;;;2.02;46.76;97377.53;4994764;28;20029;-87
2022/01/22 10:16:35;;;;;;;10.60;5.82;;;;;;;1.94;47.07;97361.94;5006527;28;20026;-88
2022/01/22 10:19:21;;;;;;;22.02;10.85;;;;;;;2.01;46.82;97363.47;4993975;28;20528;-87
2022/01/22 10:22:00;;;;;;;30.23;11.10;;;;;;;1.66;46.38;97361.09;4994640;28;20030;-86
2022/01/22 10:24:47;;;;;;;29.88;10.43;;;;;;;1.77;48.49;97342.28;4983724;28;20092;-84
2022/01/22 10:29:56;;;;;;;21.90;10.38;;;;;;;2.09;44.21;97324.53;5006538;28;20076;-87
2022/01/22 10:32:28;;;;;;;23.13;9.60;;;;;;;1.54;45.85;97337.69;4990451;28;20563;-87
2022/01/22 10:35:06;;;;;;;21.10;9.23;;;;;;;1.94;48.03;97347.91;5007032;28;20107;-85
2022/01/22 10:37:32;;;;;;;20.05;9.77;;;;;;;2.29;45.71;97323.91;5010409;28;20440;-88
2022/01/22 10:40:17;;;;;;;22.42;9.35;;;;;;;2.11;45.61;97330.63;5010646;28;20120;-88
2022/01/22 10:42:43;;;;;;;23.40;10.68;;;;;;;2.43;45.47;97329.56;5011734;28;20030;-86
2022/01/22 10:45:19;;;;;;;29.05;13.27;;;;;;;2.87;45.12;97309.56;4986560;28;20040;-88
2022/01/22 10:47:45;;;;;;;17.60;8.88;;;;;;;3.02;43.69;97298.44;4993418;28;20486;-86
2022/01/22 10:50:19;;;;;;;11.18;5.68;;;;;;;2.88;41.47;97302.50;5009467;28;20045;-86
2022/01/22 10:52:52;;;;;;;24.30;8.77;;;;;;;2.80;41.99;97301.94;5006604;28;20058;-87
2022/01/22 10:55:19;;;;;;;10.98;5.90;;;;;;;3.17;42.28;97302.31;4997998;28;20119;-87
2022/01/22 10:58:04;;;;;;;14.60;7.57;;;;;;;3.10;40.45;97291.13;5008215;28;20022;-88
2022/01/22 11:00:29;;;;;;;7.90;4.20;;;;;;;2.80;40.34;97279.00;5006340;28;20509;-88
2022/01/22 11:02:55;;;;;;;27.65;7.18;;;;;;;2.79;41.34;97279.06;5009053;28;20049;-87
2022/01/22 11:05:38;;;;;;;16.73;6.30;;;;;;;3.23;41.79;97291.53;4993005;28;20563;-87
2022/01/22 11:08:08;;;;;;;13.02;6.80;;;;;;;2.86;39.23;97278.78;5006112;28;20042;-88
2022/01/22 11:10:34;;;;;;;19.27;10.07;;;;;;;2.68;42.24;97288.22;4980752;28;20033;-86
2022/01/22 11:13:00;;;;;;;11.98;5.93;;;;;;;3.00;43.39;97294.13;5008866;28;20029;-86
2022/01/22 11:15:27;;;;;;;22.80;11.38;;;;;;;2.93;43.77;97282.06;4995543;28;20478;-88
2022/01/22 11:17:53;;;;;;;18.15;4.50;;;;;;;2.89;44.51;97293.69;5011561;28;20030;-87
2022/01/22 11:20:19;;;;;;;27.70;8.00;;;;;;;3.08;44.28;97292.94;4996942;28;20120;-86
2022/01/22 11:22:44;;;;;;;16.83;8.52;;;;;;;3.13;43.52;97280.44;4996546;28;20253;-87
2022/01/22 11:25:10;;;;;;;22.60;10.52;;;;;;;3.23;40.79;97250.09;5011945;28;20026;-86
2022/01/22 11:27:36;;;;;;;15.25;7.65;;;;;;;3.53;39.95;97242.78;4995027;28;20034;-87
2022/01/22 11:30:11;;;;;;;17.90;6.60;;;;;;;4.09;39.09;97244.94;5004565;28;20026;-88
2022/01/22 11:32:46;;;;;;;22.58;10.23;;;;;;;4.16;42.55;97259.63;5009263;28;20202;-86
2022/01/22 11:35:13;;;;;;;26.40;12.13;;;;;;;4.15;40.02;97250.81;4995968;28;20026;-87
2022/01/22 11:37:49;;;;;;;27.45;8.38;;;;;;;3.75;41.32;97254.22;5016348;28;20362;-89
2022/01/22 11:40:23;;;;;;;26.50;13.57;;;;;;;3.69;43.31;97257.09;4990616;28;20069;-74
2022/01/22 11:42:57;;;;;;;23.70;9.23;;;;;;;3.46;40.16;97265.09;4990469;28;20406;-75
2022/01/22 11:45:27;;;;;;;14.90;7.35;;;;;;;2.66;40.79;97262.78;5026322;28;20477;-75
2022/01/22 11:48:21;;;;;;;19.00;8.63;;;;;;;2.73;42.50;97270.47;5009806;28;20428;-74
2022/01/22 11:50:52;;;;;;;26.85;11.32;;;;;;;2.59;41.42;97267.44;4993608;28;20034;-76
2022/01/22 11:53:29;;;;;;;11.77;5.88;;;;;;;1.67;42.94;97272.31;5009902;28;20045;-75
2022/01/22 11:56:10;;;;;;;13.00;6.35;;;;;;;1.52;44.90;97292.97;5009657;28;20038;-73
2022/01/22 11:59:01;;;;;;;11.65;4.45;;;;;;;1.56;44.48;97291.09;5025990;28;20045;-73
2022/01/22 12:01:46;;;;;;;8.60;4.60;;;;;;;1.60;42.83;97282.16;5025850;28;20030;-74
2022/01/22 12:04:16;;;;;;;11.35;6.53;;;;;;;1.67;46.55;97299.53;5010790;28;20037;-76
2022/01/22 12:07:00;;;;;;;13.63;5.85;;;;;;;2.02;48.70;97314.25;5009587;28;20034;-74
2022/01/22 12:09:30;;;;;;;19.92;9.93;;;;;;;2.01;47.58;97304.59;5010557;28;20037;-74
2022/01/22 12:14:47;;;;;;;10.75;5.65;;;;;;;1.76;53.39;97332.63;4991562;28;20073;-76
2022/01/22 12:17:19;;;;;;;13.35;5.38;;;;;;;1.34;53.38;97340.94;5010490;28;20082;-75
2022/01/22 12:22:38;;;;;;;15.18;6.88;;;;;;;1.11;56.01;97350.41;5005848;28;20022;-85
2022/01/22 12:25:16;;;;;;;27.13;11.45;;;;;;;1.25;56.07;97356.13;5029209;28;20029;-85
2022/01/22 12:27:54;;;;;;;25.27;8.73;;;;;;;0.93;58.16;97351.75;5027764;28;20517;-85
2022/01/22 12:30:39;;;;;;;16.02;7.78;;;;;;;0.80;57.10;97363.53;5014822;28;20493;-86
2022/01/22 12:33:12;;;;;;;14.85;8.15;;;;;;;0.81;58.42;97368.75;5016909;28;20034;-85
2022/01/22 12:35:42;;;;;;;13.63;7.00;;;;;;;0.84;58.05;97365.16;5012159;28;20074;-86
2022/01/22 12:38:29;;;;;;;20.45;7.30;;;;;;;0.74;59.09;97368.97;4996913;28;20033;-87
2022/01/22 12:44:04;;;;;;;21.73;10.48;;;;;;;1.19;59.27;97375.63;5010228;28;20072;-87
2022/01/22 12:46:30;;;;;;;19.83;10.20;;;;;;;1.36;59.69;97364.59;5023248;28;20183;-87
2022/01/22 12:48:56;;;;;;;15.70;8.77;;;;;;;1.20;60.19;97353.63;4997717;28;20490;-86
2022/01/22 12:51:24;;;;;;;14.45;7.65;;;;;;;1.09;63.70;97377.63;5014123;28;20433;-87
2022/01/22 12:53:50;;;;;;;21.27;9.98;;;;;;;1.14;65.86;97377.50;4997870;28;20187;-88
2022/01/22 12:59:06;;;;;;;26.52;13.70;;;;;;;0.79;70.37;97388.13;5012258;28;20030;-87
2022/01/22 13:01:33;;;;;;;18.85;9.80;;;;;;;0.42;71.14;97368.03;4995285;28;20042;-87
2022/01/22 13:04:03;;;;;;;15.23;7.97;;;;;;;0.40;73.10;97371.59;4996245;28;20037;-86
2022/01/22 13:06:48;;;;;;;10.38;5.22;;;;;;;0.86;71.31;97372.13;4998060;28;20038;-88
2022/01/22 13:09:14;;;;;;;12.82;5.95;;;;;;;0.79;70.55;97362.69;5004360;28;20026;-86
2022/01/22 13:11:46;;;;;;;12.93;6.50;;;;;;;0.94;70.11;97353.50;4994515;28;20029;-76
2022/01/22 13:14:15;;;;;;;;;;;;;;;1.23;68.65;97361.44;5009414;28;20076;-85